sensor_id;sensor_type;location;lat;lon;timestamp;P1;durP1;ratioP1;P2;durP2;ratioP2
44704;SDS011;30431;48.520;9.046;2024-01-11T00:01:50;52.65;;;27.38;;
44704;SDS011;30431;48.520;9.046;2024-01-11T00:04:17;49.38;;;26.60;;
44704;SDS011;30431;48.520;9.046;2024-01-11T00:06:44;47.05;;;26.83;;
44704;SDS011;30431;48.520;9.046;2024-01-11T00:09:14;53.47;;;30.27;;
44704;SDS011;30431;48.520;9.046;2024-01-11T00:11:41;59.50;;;32.25;;
44704;SDS011;30431;48.520;9.046;2024-01-11T00:14:10;57.67;;;30.42;;
44704;SDS011;30431;48.520;9.046;2024-01-11T00:16:37;56.15;;;28.77;;
44704;SDS011;30431;48.520;9.046;2024-01-11T00:19:07;49.40;;;27.38;;
44704;SDS011;30431;48.520;9.046;2024-01-11T00:21:37;52.78;;;28.23;;
44704;SDS011;30431;48.520;9.046;2024-01-11T00:24:10;49.10;;;28.33;;
44704;SDS011;30431;48.520;9.046;2024-01-11T00:26:37;48.00;;;26.25;;
44704;SDS011;30431;48.520;9.046;2024-01-11T00:29:10;50.97;;;29.48;;
44704;SDS011;30431;48.520;9.046;2024-01-11T00:31:38;47.95;;;26.73;;
44704;SDS011;30431;48.520;9.046;2024-01-11T00:36:32;46.22;;;25.02;;
44704;SDS011;30431;48.520;9.046;2024-01-11T00:39:03;51.85;;;25.25;;
44704;SDS011;30431;48.520;9.046;2024-01-11T00:41:30;45.35;;;24.52;;
44704;SDS011;30431;48.520;9.046;2024-01-11T00:43:57;49.03;;;26.75;;
44704;SDS011;30431;48.520;9.046;2024-01-11T00:46:26;45.30;;;25.67;;
44704;SDS011;30431;48.520;9.046;2024-01-11T00:48:57;50.70;;;26.17;;
44704;SDS011;30431;48.520;9.046;2024-01-11T00:53:53;50.33;;;26.77;;
44704;SDS011;30431;48.520;9.046;2024-01-11T00:56:21;46.22;;;25.77;;
44704;SDS011;30431;48.520;9.046;2024-01-11T00:58:53;44.47;;;25.13;;
44704;SDS011;30431;48.520;9.046;2024-01-11T01:01:20;45.00;;;26.08;;
44704;SDS011;30431;48.520;9.046;2024-01-11T01:03:49;47.30;;;26.08;;
44704;SDS011;30431;48.520;9.046;2024-01-11T01:06:16;50.63;;;28.20;;
44704;SDS011;30431;48.520;9.046;2024-01-11T01:11:10;44.03;;;24.58;;
44704;SDS011;30431;48.520;9.046;2024-01-11T01:13:37;48.80;;;26.92;;
44704;SDS011;30431;48.520;9.046;2024-01-11T01:16:07;51.70;;;25.60;;
44704;SDS011;30431;48.520;9.046;2024-01-11T01:18:34;47.97;;;26.65;;
44704;SDS011;30431;48.520;9.046;2024-01-11T01:21:01;50.33;;;26.23;;
44704;SDS011;30431;48.520;9.046;2024-01-11T01:23:28;47.42;;;26.25;;
44704;SDS011;30431;48.520;9.046;2024-01-11T01:25:55;43.28;;;24.88;;
44704;SDS011;30431;48.520;9.046;2024-01-11T01:28:22;44.63;;;24.67;;
44704;SDS011;30431;48.520;9.046;2024-01-11T01:30:51;49.92;;;25.80;;
44704;SDS011;30431;48.520;9.046;2024-01-11T01:35:50;47.00;;;24.10;;
44704;SDS011;30431;48.520;9.046;2024-01-11T01:38:17;48.13;;;25.38;;
44704;SDS011;30431;48.520;9.046;2024-01-11T01:40:47;46.83;;;26.67;;
44704;SDS011;30431;48.520;9.046;2024-01-11T01:43:16;52.42;;;25.90;;
44704;SDS011;30431;48.520;9.046;2024-01-11T01:45:43;44.47;;;25.92;;
44704;SDS011;30431;48.520;9.046;2024-01-11T01:48:10;45.47;;;25.73;;
44704;SDS011;30431;48.520;9.046;2024-01-11T01:50:37;43.70;;;25.85;;
44704;SDS011;30431;48.520;9.046;2024-01-11T01:53:09;42.33;;;24.25;;
44704;SDS011;30431;48.520;9.046;2024-01-11T01:55:38;47.58;;;26.05;;
44704;SDS011;30431;48.520;9.046;2024-01-11T01:58:05;44.75;;;24.95;;
44704;SDS011;30431;48.520;9.046;2024-01-11T02:00:35;48.92;;;25.48;;
44704;SDS011;30431;48.520;9.046;2024-01-11T02:03:04;49.15;;;26.20;;
44704;SDS011;30431;48.520;9.046;2024-01-11T02:05:34;50.83;;;26.38;;
44704;SDS011;30431;48.520;9.046;2024-01-11T02:08:05;53.35;;;28.05;;
44704;SDS011;30431;48.520;9.046;2024-01-11T02:10:35;44.22;;;26.05;;
44704;SDS011;30431;48.520;9.046;2024-01-11T02:13:02;47.53;;;27.23;;
44704;SDS011;30431;48.520;9.046;2024-01-11T02:15:31;47.63;;;26.00;;
44704;SDS011;30431;48.520;9.046;2024-01-11T02:18:01;51.95;;;27.17;;
44704;SDS011;30431;48.520;9.046;2024-01-11T02:20:33;48.55;;;25.75;;
44704;SDS011;30431;48.520;9.046;2024-01-11T02:25:36;45.13;;;24.70;;
44704;SDS011;30431;48.520;9.046;2024-01-11T02:28:05;45.03;;;24.98;;
44704;SDS011;30431;48.520;9.046;2024-01-11T02:30:37;47.67;;;25.13;;
44704;SDS011;30431;48.520;9.046;2024-01-11T02:33:04;48.70;;;27.20;;
44704;SDS011;30431;48.520;9.046;2024-01-11T02:35:34;46.53;;;26.35;;
44704;SDS011;30431;48.520;9.046;2024-01-11T02:38:07;46.20;;;27.25;;
44704;SDS011;30431;48.520;9.046;2024-01-11T02:43:08;48.85;;;25.38;;
44704;SDS011;30431;48.520;9.046;2024-01-11T02:45:38;50.40;;;25.77;;
44704;SDS011;30431;48.520;9.046;2024-01-11T02:48:07;47.67;;;27.17;;
44704;SDS011;30431;48.520;9.046;2024-01-11T02:50:37;52.47;;;26.98;;
44704;SDS011;30431;48.520;9.046;2024-01-11T02:53:06;44.25;;;25.15;;
44704;SDS011;30431;48.520;9.046;2024-01-11T02:55:33;46.10;;;25.65;;
44704;SDS011;30431;48.520;9.046;2024-01-11T02:58:00;52.70;;;27.15;;
44704;SDS011;30431;48.520;9.046;2024-01-11T03:00:30;46.97;;;25.67;;
44704;SDS011;30431;48.520;9.046;2024-01-11T03:02:59;47.42;;;26.05;;
44704;SDS011;30431;48.520;9.046;2024-01-11T03:05:26;50.33;;;26.50;;
44704;SDS011;30431;48.520;9.046;2024-01-11T03:07:53;49.13;;;26.95;;
44704;SDS011;30431;48.520;9.046;2024-01-11T03:10:22;47.55;;;25.80;;
44704;SDS011;30431;48.520;9.046;2024-01-11T03:12:52;49.67;;;27.13;;
44704;SDS011;30431;48.520;9.046;2024-01-11T03:15:19;54.80;;;27.97;;
44704;SDS011;30431;48.520;9.046;2024-01-11T03:17:46;49.75;;;27.55;;
44704;SDS011;30431;48.520;9.046;2024-01-11T03:20:14;52.25;;;27.83;;
44704;SDS011;30431;48.520;9.046;2024-01-11T03:22:45;49.20;;;28.02;;
44704;SDS011;30431;48.520;9.046;2024-01-11T03:25:13;52.10;;;28.50;;
44704;SDS011;30431;48.520;9.046;2024-01-11T03:27:40;47.28;;;26.05;;
44704;SDS011;30431;48.520;9.046;2024-01-11T03:30:07;58.28;;;28.42;;
44704;SDS011;30431;48.520;9.046;2024-01-11T03:32:36;50.03;;;28.03;;
44704;SDS011;30431;48.520;9.046;2024-01-11T03:35:08;49.60;;;26.92;;
44704;SDS011;30431;48.520;9.046;2024-01-11T03:37:35;51.85;;;27.02;;
44704;SDS011;30431;48.520;9.046;2024-01-11T03:40:02;49.63;;;27.60;;
44704;SDS011;30431;48.520;9.046;2024-01-11T03:42:30;51.65;;;27.52;;
44704;SDS011;30431;48.520;9.046;2024-01-11T03:47:27;49.30;;;26.50;;
44704;SDS011;30431;48.520;9.046;2024-01-11T03:49:54;51.80;;;27.30;;
44704;SDS011;30431;48.520;9.046;2024-01-11T03:52:23;44.70;;;25.10;;
44704;SDS011;30431;48.520;9.046;2024-01-11T03:54:50;41.53;;;23.35;;
44704;SDS011;30431;48.520;9.046;2024-01-11T03:57:19;42.35;;;23.17;;
44704;SDS011;30431;48.520;9.046;2024-01-11T03:59:51;43.33;;;23.15;;
44704;SDS011;30431;48.520;9.046;2024-01-11T04:02:18;41.50;;;23.05;;
44704;SDS011;30431;48.520;9.046;2024-01-11T04:04:47;38.65;;;22.73;;
44704;SDS011;30431;48.520;9.046;2024-01-11T04:07:14;42.22;;;22.63;;
44704;SDS011;30431;48.520;9.046;2024-01-11T04:09:44;41.80;;;23.77;;
44704;SDS011;30431;48.520;9.046;2024-01-11T04:12:11;35.92;;;21.35;;
44704;SDS011;30431;48.520;9.046;2024-01-11T04:14:38;45.53;;;22.50;;
44704;SDS011;30431;48.520;9.046;2024-01-11T04:17:08;41.90;;;23.15;;
44704;SDS011;30431;48.520;9.046;2024-01-11T04:19:35;39.53;;;21.90;;
44704;SDS011;30431;48.520;9.046;2024-01-11T04:24:29;46.23;;;23.37;;
44704;SDS011;30431;48.520;9.046;2024-01-11T04:26:58;48.30;;;25.87;;
44704;SDS011;30431;48.520;9.046;2024-01-11T04:29:27;47.97;;;25.63;;
44704;SDS011;30431;48.520;9.046;2024-01-11T04:31:57;44.53;;;24.57;;
44704;SDS011;30431;48.520;9.046;2024-01-11T04:34:24;43.43;;;25.13;;
44704;SDS011;30431;48.520;9.046;2024-01-11T04:36:52;43.57;;;23.90;;
44704;SDS011;30431;48.520;9.046;2024-01-11T04:39:21;44.80;;;24.80;;
44704;SDS011;30431;48.520;9.046;2024-01-11T04:41:48;45.28;;;23.67;;
44704;SDS011;30431;48.520;9.046;2024-01-11T04:44:15;41.53;;;23.75;;
44704;SDS011;30431;48.520;9.046;2024-01-11T04:46:44;45.15;;;24.33;;
44704;SDS011;30431;48.520;9.046;2024-01-11T04:49:15;44.37;;;24.17;;
44704;SDS011;30431;48.520;9.046;2024-01-11T04:51:42;48.60;;;26.10;;
44704;SDS011;30431;48.520;9.046;2024-01-11T04:54:09;46.03;;;24.25;;
44704;SDS011;30431;48.520;9.046;2024-01-11T04:56:36;52.08;;;26.55;;
44704;SDS011;30431;48.520;9.046;2024-01-11T04:59:03;49.70;;;27.42;;
44704;SDS011;30431;48.520;9.046;2024-01-11T05:01:30;48.95;;;27.77;;
44704;SDS011;30431;48.520;9.046;2024-01-11T05:03:57;53.38;;;26.58;;
44704;SDS011;30431;48.520;9.046;2024-01-11T05:08:54;47.70;;;26.10;;
44704;SDS011;30431;48.520;9.046;2024-01-11T05:11:22;50.67;;;27.17;;
44704;SDS011;30431;48.520;9.046;2024-01-11T05:13:53;51.07;;;27.27;;
44704;SDS011;30431;48.520;9.046;2024-01-11T05:16:28;49.78;;;27.63;;
44704;SDS011;30431;48.520;9.046;2024-01-11T05:18:56;53.37;;;26.57;;
44704;SDS011;30431;48.520;9.046;2024-01-11T05:21:26;52.23;;;27.20;;
44704;SDS011;30431;48.520;9.046;2024-01-11T05:23:53;49.83;;;26.83;;
44704;SDS011;30431;48.520;9.046;2024-01-11T05:26:20;50.88;;;27.02;;
44704;SDS011;30431;48.520;9.046;2024-01-11T05:28:47;47.37;;;26.57;;
44704;SDS011;30431;48.520;9.046;2024-01-11T05:31:17;45.73;;;26.77;;
44704;SDS011;30431;48.520;9.046;2024-01-11T05:33:44;49.33;;;26.93;;
44704;SDS011;30431;48.520;9.046;2024-01-11T05:36:13;53.47;;;26.73;;
44704;SDS011;30431;48.520;9.046;2024-01-11T05:38:44;55.77;;;26.83;;
44704;SDS011;30431;48.520;9.046;2024-01-11T05:41:12;50.37;;;27.90;;
44704;SDS011;30431;48.520;9.046;2024-01-11T05:46:06;54.97;;;28.90;;
44704;SDS011;30431;48.520;9.046;2024-01-11T05:48:36;56.73;;;28.43;;
44704;SDS011;30431;48.520;9.046;2024-01-11T05:51:06;52.70;;;27.77;;
44704;SDS011;30431;48.520;9.046;2024-01-11T05:53:36;51.97;;;27.70;;
44704;SDS011;30431;48.520;9.046;2024-01-11T05:56:07;50.87;;;27.80;;
44704;SDS011;30431;48.520;9.046;2024-01-11T05:58:36;50.80;;;27.63;;
44704;SDS011;30431;48.520;9.046;2024-01-11T06:01:05;48.87;;;27.07;;
44704;SDS011;30431;48.520;9.046;2024-01-11T06:03:32;46.72;;;26.85;;
44704;SDS011;30431;48.520;9.046;2024-01-11T06:06:01;50.90;;;26.67;;
44704;SDS011;30431;48.520;9.046;2024-01-11T06:08:29;56.47;;;28.87;;
44704;SDS011;30431;48.520;9.046;2024-01-11T06:10:57;49.33;;;26.77;;
44704;SDS011;30431;48.520;9.046;2024-01-11T06:13:25;50.53;;;27.30;;
44704;SDS011;30431;48.520;9.046;2024-01-11T06:15:54;52.77;;;27.17;;
44704;SDS011;30431;48.520;9.046;2024-01-11T06:18:23;53.00;;;27.27;;
44704;SDS011;30431;48.520;9.046;2024-01-11T06:20:51;52.63;;;26.80;;
44704;SDS011;30431;48.520;9.046;2024-01-11T06:23:23;51.73;;;27.37;;
44704;SDS011;30431;48.520;9.046;2024-01-11T06:25:51;44.87;;;26.00;;
44704;SDS011;30431;48.520;9.046;2024-01-11T06:28:22;51.57;;;27.10;;
44704;SDS011;30431;48.520;9.046;2024-01-11T06:30:49;52.95;;;28.02;;
44704;SDS011;30431;48.520;9.046;2024-01-11T06:33:18;48.57;;;27.20;;
44704;SDS011;30431;48.520;9.046;2024-01-11T06:35:47;52.57;;;27.90;;
44704;SDS011;30431;48.520;9.046;2024-01-11T06:38:14;47.30;;;25.75;;
44704;SDS011;30431;48.520;9.046;2024-01-11T06:40:45;49.40;;;27.03;;
44704;SDS011;30431;48.520;9.046;2024-01-11T06:43:12;54.30;;;28.63;;
44704;SDS011;30431;48.520;9.046;2024-01-11T06:45:39;53.67;;;27.23;;
44704;SDS011;30431;48.520;9.046;2024-01-11T06:48:11;52.30;;;27.95;;
44704;SDS011;30431;48.520;9.046;2024-01-11T06:50:38;55.43;;;29.33;;
44704;SDS011;30431;48.520;9.046;2024-01-11T06:53:10;54.47;;;28.40;;
44704;SDS011;30431;48.520;9.046;2024-01-11T06:55:37;51.20;;;28.23;;
44704;SDS011;30431;48.520;9.046;2024-01-11T06:58:04;53.25;;;29.02;;
44704;SDS011;30431;48.520;9.046;2024-01-11T07:03:01;51.07;;;28.07;;
44704;SDS011;30431;48.520;9.046;2024-01-11T07:05:29;50.37;;;28.87;;
44704;SDS011;30431;48.520;9.046;2024-01-11T07:07:57;49.43;;;26.53;;
44704;SDS011;30431;48.520;9.046;2024-01-11T07:10:28;50.73;;;27.83;;
44704;SDS011;30431;48.520;9.046;2024-01-11T07:15:22;50.50;;;26.27;;
44704;SDS011;30431;48.520;9.046;2024-01-11T07:17:54;50.47;;;26.67;;
44704;SDS011;30431;48.520;9.046;2024-01-11T07:20:21;58.27;;;27.90;;
44704;SDS011;30431;48.520;9.046;2024-01-11T07:22:50;48.13;;;27.93;;
44704;SDS011;30431;48.520;9.046;2024-01-11T07:25:17;54.13;;;28.65;;
44704;SDS011;30431;48.520;9.046;2024-01-11T07:27:44;52.88;;;27.38;;
44704;SDS011;30431;48.520;9.046;2024-01-11T07:30:11;51.17;;;26.83;;
44704;SDS011;30431;48.520;9.046;2024-01-11T07:32:38;52.00;;;27.53;;
44704;SDS011;30431;48.520;9.046;2024-01-11T07:35:06;55.90;;;27.97;;
44704;SDS011;30431;48.520;9.046;2024-01-11T07:37:39;49.63;;;27.10;;
44704;SDS011;30431;48.520;9.046;2024-01-11T07:40:06;52.60;;;26.83;;
44704;SDS011;30431;48.520;9.046;2024-01-11T07:42:37;49.57;;;26.00;;
44704;SDS011;30431;48.520;9.046;2024-01-11T07:45:12;49.10;;;27.03;;
44704;SDS011;30431;48.520;9.046;2024-01-11T07:47:40;52.07;;;27.97;;
44704;SDS011;30431;48.520;9.046;2024-01-11T07:50:07;56.77;;;28.10;;
44704;SDS011;30431;48.520;9.046;2024-01-11T07:52:41;53.43;;;29.80;;
44704;SDS011;30431;48.520;9.046;2024-01-11T07:55:10;54.00;;;29.92;;
44704;SDS011;30431;48.520;9.046;2024-01-11T07:57:39;46.00;;;27.37;;
44704;SDS011;30431;48.520;9.046;2024-01-11T08:00:09;48.50;;;27.65;;
44704;SDS011;30431;48.520;9.046;2024-01-11T08:02:38;50.07;;;28.83;;
44704;SDS011;30431;48.520;9.046;2024-01-11T08:05:06;48.80;;;27.80;;
44704;SDS011;30431;48.520;9.046;2024-01-11T08:07:36;58.43;;;30.17;;
44704;SDS011;30431;48.520;9.046;2024-01-11T08:10:08;63.60;;;31.05;;
44704;SDS011;30431;48.520;9.046;2024-01-11T08:12:38;53.47;;;29.77;;
44704;SDS011;30431;48.520;9.046;2024-01-11T08:15:07;53.10;;;27.83;;
44704;SDS011;30431;48.520;9.046;2024-01-11T08:17:43;55.60;;;29.83;;
44704;SDS011;30431;48.520;9.046;2024-01-11T08:20:15;51.50;;;27.77;;
44704;SDS011;30431;48.520;9.046;2024-01-11T08:22:44;53.60;;;28.63;;
44704;SDS011;30431;48.520;9.046;2024-01-11T08:25:15;57.28;;;29.60;;
44704;SDS011;30431;48.520;9.046;2024-01-11T08:27:42;50.80;;;28.02;;
44704;SDS011;30431;48.520;9.046;2024-01-11T08:30:11;51.60;;;28.17;;
44704;SDS011;30431;48.520;9.046;2024-01-11T08:32:39;50.03;;;27.92;;
44704;SDS011;30431;48.520;9.046;2024-01-11T08:35:09;52.42;;;29.17;;
44704;SDS011;30431;48.520;9.046;2024-01-11T08:37:37;51.87;;;28.37;;
44704;SDS011;30431;48.520;9.046;2024-01-11T08:40:05;53.00;;;29.63;;
44704;SDS011;30431;48.520;9.046;2024-01-11T08:42:36;50.45;;;29.02;;
44704;SDS011;30431;48.520;9.046;2024-01-11T08:47:33;50.70;;;26.63;;
44704;SDS011;30431;48.520;9.046;2024-01-11T08:50:05;51.92;;;26.73;;
44704;SDS011;30431;48.520;9.046;2024-01-11T08:52:33;48.00;;;26.13;;
44704;SDS011;30431;48.520;9.046;2024-01-11T08:55:00;60.78;;;31.27;;
44704;SDS011;30431;48.520;9.046;2024-01-11T08:57:27;67.40;;;33.97;;
44704;SDS011;30431;48.520;9.046;2024-01-11T08:59:54;57.58;;;29.60;;
44704;SDS011;30431;48.520;9.046;2024-01-11T09:02:23;53.60;;;28.17;;
44704;SDS011;30431;48.520;9.046;2024-01-11T09:04:53;45.60;;;26.92;;
44704;SDS011;30431;48.520;9.046;2024-01-11T09:07:23;49.60;;;26.90;;
44704;SDS011;30431;48.520;9.046;2024-01-11T09:09:57;51.70;;;29.27;;
44704;SDS011;30431;48.520;9.046;2024-01-11T09:12:24;50.85;;;27.95;;
44704;SDS011;30431;48.520;9.046;2024-01-11T09:14:51;53.85;;;27.90;;
44704;SDS011;30431;48.520;9.046;2024-01-11T09:17:21;51.63;;;27.00;;
44704;SDS011;30431;48.520;9.046;2024-01-11T09:19:51;55.00;;;28.45;;
44704;SDS011;30431;48.520;9.046;2024-01-11T09:22:18;54.25;;;28.25;;
44704;SDS011;30431;48.520;9.046;2024-01-11T09:24:45;52.00;;;28.45;;
44704;SDS011;30431;48.520;9.046;2024-01-11T09:27:14;58.17;;;29.88;;
44704;SDS011;30431;48.520;9.046;2024-01-11T09:29:44;57.88;;;30.63;;
44704;SDS011;30431;48.520;9.046;2024-01-11T09:32:18;61.58;;;30.17;;
44704;SDS011;30431;48.520;9.046;2024-01-11T09:34:47;54.78;;;28.50;;
44704;SDS011;30431;48.520;9.046;2024-01-11T09:37:14;61.35;;;31.90;;
44704;SDS011;30431;48.520;9.046;2024-01-11T09:39:41;59.20;;;30.40;;
44704;SDS011;30431;48.520;9.046;2024-01-11T09:42:09;57.50;;;31.20;;
44704;SDS011;30431;48.520;9.046;2024-01-11T09:44:39;63.58;;;30.58;;
44704;SDS011;30431;48.520;9.046;2024-01-11T09:47:08;54.72;;;30.33;;
44704;SDS011;30431;48.520;9.046;2024-01-11T09:49:42;57.90;;;31.27;;
44704;SDS011;30431;48.520;9.046;2024-01-11T09:52:12;53.22;;;30.13;;
44704;SDS011;30431;48.520;9.046;2024-01-11T09:54:41;58.78;;;30.90;;
44704;SDS011;30431;48.520;9.046;2024-01-11T09:57:09;61.17;;;33.17;;
44704;SDS011;30431;48.520;9.046;2024-01-11T09:59:41;63.88;;;33.50;;
44704;SDS011;30431;48.520;9.046;2024-01-11T10:02:11;60.05;;;32.58;;
44704;SDS011;30431;48.520;9.046;2024-01-11T10:04:40;57.42;;;31.73;;
44704;SDS011;30431;48.520;9.046;2024-01-11T10:07:08;56.70;;;32.20;;
44704;SDS011;30431;48.520;9.046;2024-01-11T10:09:36;58.15;;;31.85;;
44704;SDS011;30431;48.520;9.046;2024-01-11T10:12:03;64.97;;;35.90;;
44704;SDS011;30431;48.520;9.046;2024-01-11T10:14:34;60.17;;;32.75;;
44704;SDS011;30431;48.520;9.046;2024-01-11T10:17:01;61.60;;;33.15;;
44704;SDS011;30431;48.520;9.046;2024-01-11T10:19:31;57.67;;;32.30;;
44704;SDS011;30431;48.520;9.046;2024-01-11T10:21:58;55.10;;;32.55;;
44704;SDS011;30431;48.520;9.046;2024-01-11T10:24:25;62.55;;;33.33;;
44704;SDS011;30431;48.520;9.046;2024-01-11T10:29:32;55.95;;;30.67;;
44704;SDS011;30431;48.520;9.046;2024-01-11T10:32:05;67.75;;;34.90;;
44704;SDS011;30431;48.520;9.046;2024-01-11T10:34:33;63.78;;;34.20;;
44704;SDS011;30431;48.520;9.046;2024-01-11T10:42:04;56.78;;;30.67;;
44704;SDS011;30431;48.520;9.046;2024-01-11T10:44:34;62.80;;;35.03;;
44704;SDS011;30431;48.520;9.046;2024-01-11T10:47:02;60.60;;;33.10;;
44704;SDS011;30431;48.520;9.046;2024-01-11T10:49:34;59.58;;;33.88;;
44704;SDS011;30431;48.520;9.046;2024-01-11T10:52:07;61.97;;;32.92;;
44704;SDS011;30431;48.520;9.046;2024-01-11T10:54:34;58.67;;;33.72;;
44704;SDS011;30431;48.520;9.046;2024-01-11T10:57:03;64.88;;;33.40;;
44704;SDS011;30431;48.520;9.046;2024-01-11T10:59:32;61.40;;;34.20;;
44704;SDS011;30431;48.520;9.046;2024-01-11T11:02:06;62.15;;;36.70;;
44704;SDS011;30431;48.520;9.046;2024-01-11T11:04:39;60.13;;;34.90;;
44704;SDS011;30431;48.520;9.046;2024-01-11T11:07:08;57.33;;;31.15;;
44704;SDS011;30431;48.520;9.046;2024-01-11T11:09:36;52.53;;;31.48;;
44704;SDS011;30431;48.520;9.046;2024-01-11T11:12:11;56.90;;;31.55;;
44704;SDS011;30431;48.520;9.046;2024-01-11T11:14:42;62.03;;;32.90;;
44704;SDS011;30431;48.520;9.046;2024-01-11T11:17:10;63.03;;;31.70;;
44704;SDS011;30431;48.520;9.046;2024-01-11T11:19:41;60.72;;;32.05;;
44704;SDS011;30431;48.520;9.046;2024-01-11T11:22:09;63.53;;;33.97;;
44704;SDS011;30431;48.520;9.046;2024-01-11T11:24:41;60.95;;;33.67;;
44704;SDS011;30431;48.520;9.046;2024-01-11T11:27:12;58.60;;;32.75;;
44704;SDS011;30431;48.520;9.046;2024-01-11T11:29:46;59.38;;;33.40;;
44704;SDS011;30431;48.520;9.046;2024-01-11T11:32:16;55.97;;;33.13;;
44704;SDS011;30431;48.520;9.046;2024-01-11T11:35:01;58.63;;;33.17;;
44704;SDS011;30431;48.520;9.046;2024-01-11T11:37:29;60.35;;;34.50;;
44704;SDS011;30431;48.520;9.046;2024-01-11T11:39:57;65.18;;;35.13;;
44704;SDS011;30431;48.520;9.046;2024-01-11T11:42:26;71.00;;;35.03;;
44704;SDS011;30431;48.520;9.046;2024-01-11T11:44:56;66.65;;;36.08;;
44704;SDS011;30431;48.520;9.046;2024-01-11T11:47:24;57.70;;;33.63;;
44704;SDS011;30431;48.520;9.046;2024-01-11T11:50:04;63.33;;;35.28;;
44704;SDS011;30431;48.520;9.046;2024-01-11T11:52:34;59.45;;;33.20;;
44704;SDS011;30431;48.520;9.046;2024-01-11T11:55:06;59.17;;;34.28;;
44704;SDS011;30431;48.520;9.046;2024-01-11T11:57:35;58.95;;;33.85;;
44704;SDS011;30431;48.520;9.046;2024-01-11T12:00:05;61.42;;;34.92;;
44704;SDS011;30431;48.520;9.046;2024-01-11T12:02:38;60.13;;;34.90;;
44704;SDS011;30431;48.520;9.046;2024-01-11T12:05:06;65.32;;;34.90;;
44704;SDS011;30431;48.520;9.046;2024-01-11T12:07:33;63.88;;;35.17;;
44704;SDS011;30431;48.520;9.046;2024-01-11T12:10:05;59.08;;;33.85;;
44704;SDS011;30431;48.520;9.046;2024-01-11T12:12:36;61.25;;;36.22;;
44704;SDS011;30431;48.520;9.046;2024-01-11T12:15:04;60.13;;;37.22;;
44704;SDS011;30431;48.520;9.046;2024-01-11T12:17:31;64.15;;;36.33;;
44704;SDS011;30431;48.520;9.046;2024-01-11T12:19:58;67.35;;;36.85;;
44704;SDS011;30431;48.520;9.046;2024-01-11T12:22:31;64.32;;;34.65;;
44704;SDS011;30431;48.520;9.046;2024-01-11T12:25:03;64.95;;;35.90;;
44704;SDS011;30431;48.520;9.046;2024-01-11T12:27:33;60.75;;;36.53;;
44704;SDS011;30431;48.520;9.046;2024-01-11T12:30:03;68.25;;;36.58;;
44704;SDS011;30431;48.520;9.046;2024-01-11T12:32:31;60.25;;;35.97;;
44704;SDS011;30431;48.520;9.046;2024-01-11T12:35:04;60.97;;;35.65;;
44704;SDS011;30431;48.520;9.046;2024-01-11T12:37:32;60.58;;;36.20;;
44704;SDS011;30431;48.520;9.046;2024-01-11T12:39:59;65.45;;;35.80;;
44704;SDS011;30431;48.520;9.046;2024-01-11T12:42:29;58.13;;;35.08;;
44704;SDS011;30431;48.520;9.046;2024-01-11T12:44:56;63.58;;;35.42;;
44704;SDS011;30431;48.520;9.046;2024-01-11T12:47:26;66.15;;;35.55;;
44704;SDS011;30431;48.520;9.046;2024-01-11T12:49:56;55.60;;;35.55;;
44704;SDS011;30431;48.520;9.046;2024-01-11T12:52:25;68.75;;;38.80;;
44704;SDS011;30431;48.520;9.046;2024-01-11T12:54:56;69.13;;;37.88;;
44704;SDS011;30431;48.520;9.046;2024-01-11T12:57:24;77.68;;;42.88;;
44704;SDS011;30431;48.520;9.046;2024-01-11T12:59:54;71.57;;;40.95;;
44704;SDS011;30431;48.520;9.046;2024-01-11T13:02:35;68.28;;;37.80;;
44704;SDS011;30431;48.520;9.046;2024-01-11T13:05:02;61.00;;;36.38;;
44704;SDS011;30431;48.520;9.046;2024-01-11T13:07:33;63.22;;;36.72;;
44704;SDS011;30431;48.520;9.046;2024-01-11T13:10:00;64.03;;;36.17;;
44704;SDS011;30431;48.520;9.046;2024-01-11T13:12:30;61.90;;;35.88;;
44704;SDS011;30431;48.520;9.046;2024-01-11T13:17:24;67.78;;;37.70;;
44704;SDS011;30431;48.520;9.046;2024-01-11T13:19:54;64.68;;;37.53;;
44704;SDS011;30431;48.520;9.046;2024-01-11T13:24:50;64.13;;;35.65;;
44704;SDS011;30431;48.520;9.046;2024-01-11T13:27:19;67.57;;;37.47;;
44704;SDS011;30431;48.520;9.046;2024-01-11T13:29:50;67.13;;;38.13;;
44704;SDS011;30431;48.520;9.046;2024-01-11T13:32:19;67.90;;;37.90;;
44704;SDS011;30431;48.520;9.046;2024-01-11T13:34:48;61.08;;;36.83;;
44704;SDS011;30431;48.520;9.046;2024-01-11T13:37:20;58.67;;;36.90;;
44704;SDS011;30431;48.520;9.046;2024-01-11T13:39:46;63.78;;;37.67;;
44704;SDS011;30431;48.520;9.046;2024-01-11T13:42:17;66.75;;;38.92;;
44704;SDS011;30431;48.520;9.046;2024-01-11T13:44:44;68.05;;;38.17;;
44704;SDS011;30431;48.520;9.046;2024-01-11T13:47:18;74.60;;;39.50;;
44704;SDS011;30431;48.520;9.046;2024-01-11T13:49:47;67.03;;;38.97;;
44704;SDS011;30431;48.520;9.046;2024-01-11T13:52:17;63.33;;;36.90;;
44704;SDS011;30431;48.520;9.046;2024-01-11T13:54:44;68.38;;;38.97;;
44704;SDS011;30431;48.520;9.046;2024-01-11T13:57:13;70.40;;;37.88;;
44704;SDS011;30431;48.520;9.046;2024-01-11T13:59:40;65.82;;;37.90;;
44704;SDS011;30431;48.520;9.046;2024-01-11T14:02:07;60.63;;;37.10;;
44704;SDS011;30431;48.520;9.046;2024-01-11T14:04:34;66.55;;;37.65;;
44704;SDS011;30431;48.520;9.046;2024-01-11T14:07:02;67.18;;;37.92;;
44704;SDS011;30431;48.520;9.046;2024-01-11T14:09:29;61.53;;;36.75;;
44704;SDS011;30431;48.520;9.046;2024-01-11T14:11:59;66.85;;;38.88;;
44704;SDS011;30431;48.520;9.046;2024-01-11T14:14:26;68.50;;;37.60;;
44704;SDS011;30431;48.520;9.046;2024-01-11T14:16:53;61.75;;;36.20;;
44704;SDS011;30431;48.520;9.046;2024-01-11T14:19:20;65.38;;;37.33;;
44704;SDS011;30431;48.520;9.046;2024-01-11T14:21:50;70.78;;;39.63;;
44704;SDS011;30431;48.520;9.046;2024-01-11T14:24:17;71.60;;;41.13;;
44704;SDS011;30431;48.520;9.046;2024-01-11T14:26:55;66.28;;;39.83;;
44704;SDS011;30431;48.520;9.046;2024-01-11T14:29:27;70.55;;;38.10;;
44704;SDS011;30431;48.520;9.046;2024-01-11T14:31:54;65.43;;;38.67;;
44704;SDS011;30431;48.520;9.046;2024-01-11T14:34:23;75.60;;;41.42;;
44704;SDS011;30431;48.520;9.046;2024-01-11T14:36:53;64.53;;;37.25;;
44704;SDS011;30431;48.520;9.046;2024-01-11T14:39:20;63.90;;;39.10;;
44704;SDS011;30431;48.520;9.046;2024-01-11T14:41:52;64.80;;;38.70;;
44704;SDS011;30431;48.520;9.046;2024-01-11T14:44:19;63.97;;;38.08;;
44704;SDS011;30431;48.520;9.046;2024-01-11T14:46:49;63.67;;;38.47;;
44704;SDS011;30431;48.520;9.046;2024-01-11T14:49:16;63.00;;;37.65;;
44704;SDS011;30431;48.520;9.046;2024-01-11T14:51:43;68.07;;;38.70;;
44704;SDS011;30431;48.520;9.046;2024-01-11T14:54:10;64.38;;;39.00;;
44704;SDS011;30431;48.520;9.046;2024-01-11T14:56:39;65.50;;;37.22;;
44704;SDS011;30431;48.520;9.046;2024-01-11T14:59:07;62.72;;;38.33;;
44704;SDS011;30431;48.520;9.046;2024-01-11T15:01:36;61.78;;;37.60;;
44704;SDS011;30431;48.520;9.046;2024-01-11T15:04:05;62.03;;;37.25;;
44704;SDS011;30431;48.520;9.046;2024-01-11T15:06:32;63.97;;;37.25;;
44704;SDS011;30431;48.520;9.046;2024-01-11T15:09:00;65.43;;;36.15;;
44704;SDS011;30431;48.520;9.046;2024-01-11T15:11:28;60.30;;;38.42;;
44704;SDS011;30431;48.520;9.046;2024-01-11T15:14:02;65.95;;;38.55;;
44704;SDS011;30431;48.520;9.046;2024-01-11T15:16:32;61.05;;;36.35;;